createdAt,value
2022-12-25T00:02:18.171Z,10.00
2022-12-25T00:04:50.323Z,10.00
2022-12-25T00:07:19.768Z,10.00
2022-12-25T00:09:49.438Z,10.00
2022-12-25T00:12:19.367Z,10.00
2022-12-25T00:14:49.066Z,10.10
2022-12-25T00:17:18.577Z,10.10
2022-12-25T00:19:50.706Z,10.10
2022-12-25T00:22:20.201Z,10.00
2022-12-25T00:24:50.221Z,10.00
2022-12-25T00:27:19.901Z,10.00
2022-12-25T00:29:49.532Z,10.00
2022-12-25T00:32:18.991Z,10.10
2022-12-25T00:34:52.758Z,10.00
2022-12-25T00:37:22.209Z,10.10
2022-12-25T00:39:51.848Z,10.10
2022-12-25T00:42:24.988Z,10.10
2022-12-25T00:44:54.517Z,10.10
2022-12-25T00:47:24.058Z,10.10
2022-12-25T00:49:56.284Z,10.10
2022-12-25T00:52:25.789Z,10.10
2022-12-25T00:54:55.331Z,10.20
2022-12-25T00:57:25.002Z,10.10
2022-12-25T00:59:54.569Z,10.10
2022-12-25T01:02:27.295Z,10.10
2022-12-25T01:04:59.638Z,10.10
2022-12-25T01:07:29.441Z,10.10
2022-12-25T01:10:11.458Z,10.10
2022-12-25T01:12:42.140Z,10.10
2022-12-25T01:15:12.684Z,10.10
2022-12-25T01:17:42.222Z,10.10
2022-12-25T01:20:15.223Z,10.10
2022-12-25T01:22:44.872Z,10.10
2022-12-25T01:25:14.962Z,10.10
2022-12-25T01:27:44.875Z,10.10
2022-12-25T01:30:14.690Z,10.10
2022-12-25T01:32:44.179Z,10.10
2022-12-25T01:35:16.345Z,10.10
2022-12-25T01:37:45.822Z,10.10
2022-12-25T01:40:15.577Z,10.10
2022-12-25T01:42:45.224Z,10.10
2022-12-25T01:45:30.730Z,10.10
2022-12-25T01:48:00.575Z,10.10
2022-12-25T01:50:32.847Z,10.10
2022-12-25T01:53:02.371Z,10.10
2022-12-25T01:55:32.106Z,10.10
2022-12-25T01:58:01.586Z,10.10
2022-12-25T02:00:31.110Z,10.10
2022-12-25T02:03:01.260Z,10.10
2022-12-25T02:05:34.297Z,10.10
2022-12-25T02:08:05.016Z,10.10
2022-12-25T02:10:34.553Z,10.10
2022-12-25T02:13:04.579Z,10.10
2022-12-25T02:15:38.052Z,10.10
2022-12-25T02:18:10.038Z,10.10
2022-12-25T02:20:54.379Z,10.20
2022-12-25T02:23:40.135Z,10.10
2022-12-25T02:26:17.096Z,10.10
2022-12-25T02:28:52.490Z,10.20
2022-12-25T02:31:24.883Z,10.20
2022-12-25T02:34:09.572Z,10.20
2022-12-25T02:36:42.885Z,10.20
2022-12-25T02:39:28.119Z,10.20
2022-12-25T02:42:01.104Z,10.20
2022-12-25T02:44:46.703Z,10.20
2022-12-25T02:47:29.645Z,10.20
2022-12-25T02:50:12.371Z,10.20
2022-12-25T02:52:54.759Z,10.20
2022-12-25T02:55:37.841Z,10.20
2022-12-25T02:58:21.402Z,10.20
2022-12-25T03:01:08.323Z,10.20
2022-12-25T03:03:52.285Z,10.40
2022-12-25T03:06:38.102Z,10.20
2022-12-25T03:09:20.420Z,10.20
2022-12-25T03:11:50.843Z,10.20
2022-12-25T03:14:33.026Z,10.20
2022-12-25T03:17:05.348Z,10.20
2022-12-25T03:19:49.152Z,10.30
2022-12-25T03:22:34.455Z,10.20
2022-12-25T03:25:16.429Z,10.20
2022-12-25T03:27:47.112Z,10.20
2022-12-25T03:30:29.434Z,10.20
2022-12-25T03:33:17.955Z,10.20
2022-12-25T03:36:03.254Z,10.20
2022-12-25T03:38:49.928Z,10.20
2022-12-25T03:41:35.268Z,10.20
2022-12-25T03:44:23.102Z,10.20
2022-12-25T03:47:24.564Z,10.20
2022-12-25T03:50:14.067Z,10.20
2022-12-25T03:52:56.526Z,10.20
2022-12-25T03:55:39.465Z,10.20
2022-12-25T03:58:31.417Z,10.20
2022-12-25T04:01:13.413Z,10.20
2022-12-25T04:03:55.459Z,10.20
2022-12-25T04:06:40.003Z,10.20
2022-12-25T04:09:21.966Z,10.20
2022-12-25T04:12:04.036Z,10.10
2022-12-25T04:14:46.032Z,10.10
2022-12-25T04:17:27.992Z,10.10
2022-12-25T04:20:10.002Z,10.10
2022-12-25T04:22:54.565Z,10.10
2022-12-25T04:25:36.596Z,10.10
2022-12-25T04:28:19.092Z,10.10
2022-12-25T04:31:01.182Z,10.10
2022-12-25T04:33:43.207Z,10.10
2022-12-25T04:36:12.898Z,10.20
2022-12-25T04:38:45.315Z,10.20
2022-12-25T04:41:15.387Z,10.20
2022-12-25T04:43:44.882Z,10.20
2022-12-25T04:46:14.408Z,10.40
2022-12-25T04:48:43.963Z,10.20
2022-12-25T04:51:14.565Z,10.20
2022-12-25T04:53:47.031Z,10.20
2022-12-25T04:56:17.090Z,10.20
2022-12-25T04:58:47.011Z,10.20
2022-12-25T05:01:17.371Z,10.20
2022-12-25T05:03:46.971Z,10.20
2022-12-25T05:06:16.543Z,10.20
2022-12-25T05:08:48.689Z,10.20
2022-12-25T05:11:18.672Z,10.20
2022-12-25T05:13:48.292Z,10.20
2022-12-25T05:16:19.368Z,10.20
2022-12-25T05:18:51.425Z,10.20
2022-12-25T05:21:21.314Z,10.20
2022-12-25T05:23:55.010Z,10.20
2022-12-25T05:26:25.297Z,10.20
2022-12-25T05:28:54.851Z,10.20
2022-12-25T05:31:24.423Z,10.20
2022-12-25T05:33:54.068Z,10.20
2022-12-25T05:36:23.637Z,10.20
2022-12-25T05:38:55.710Z,10.20
2022-12-25T05:41:27.907Z,10.10
2022-12-25T05:44:01.842Z,10.00
2022-12-25T05:46:31.470Z,9.90
2022-12-25T05:49:00.973Z,9.90
2022-12-25T05:51:30.939Z,9.90
2022-12-25T05:54:03.070Z,10.00
2022-12-25T05:56:32.750Z,10.00
2022-12-25T05:59:02.295Z,10.00
2022-12-25T06:01:31.913Z,10.00
2022-12-25T06:04:03.596Z,10.00
2022-12-25T06:06:36.579Z,10.00
2022-12-25T06:09:08.621Z,10.10
2022-12-25T06:11:38.446Z,10.10
2022-12-25T06:14:08.303Z,10.10
2022-12-25T06:16:38.645Z,10.10
2022-12-25T06:19:08.464Z,10.10
2022-12-25T06:21:37.905Z,10.10
2022-12-25T06:24:11.584Z,10.10
2022-12-25T06:26:44.288Z,10.10
2022-12-25T06:29:13.770Z,10.10
2022-12-25T06:31:43.380Z,10.20
2022-12-25T06:34:16.369Z,10.20
2022-12-25T06:36:46.188Z,10.20
2022-12-25T06:39:18.220Z,10.10
2022-12-25T06:41:47.677Z,10.10
2022-12-25T06:44:17.179Z,10.10
2022-12-25T06:46:47.021Z,10.10
2022-12-25T06:49:16.542Z,10.10
2022-12-25T06:51:46.006Z,10.10
2022-12-25T06:54:18.029Z,10.10
2022-12-25T06:56:48.753Z,10.10
2022-12-25T06:59:18.255Z,10.10
2022-12-25T07:01:48.927Z,10.10
2022-12-25T07:04:19.879Z,10.20
2022-12-25T07:06:49.539Z,10.20
2022-12-25T07:09:22.126Z,10.20
2022-12-25T07:11:51.607Z,10.20
2022-12-25T07:14:24.481Z,10.20
2022-12-25T07:16:54.271Z,10.20
2022-12-25T07:19:23.782Z,10.20
2022-12-25T07:21:53.288Z,10.20
2022-12-25T07:24:25.837Z,10.20
2022-12-25T07:26:55.326Z,10.20
2022-12-25T07:29:24.892Z,10.30
2022-12-25T07:31:54.494Z,10.30
2022-12-25T07:34:24.134Z,10.30
2022-12-25T07:36:53.702Z,10.30
2022-12-25T07:39:26.245Z,10.20
2022-12-25T07:41:55.783Z,10.20
2022-12-25T07:44:25.318Z,10.20
2022-12-25T07:46:54.921Z,10.20
2022-12-25T07:49:24.574Z,10.20
2022-12-25T07:51:54.123Z,10.20
2022-12-25T07:54:26.301Z,10.30
2022-12-25T07:56:55.959Z,10.30
2022-12-25T07:59:25.422Z,10.30
2022-12-25T08:01:55.148Z,10.30
2022-12-25T08:04:24.894Z,10.30
2022-12-25T08:06:54.374Z,10.30
2022-12-25T08:09:26.569Z,10.30
2022-12-25T08:11:56.006Z,10.30
2022-12-25T08:14:25.700Z,10.40
2022-12-25T08:16:55.347Z,10.40
2022-12-25T08:19:24.898Z,10.40
2022-12-25T08:21:54.371Z,10.40
2022-12-25T08:24:29.121Z,10.40
2022-12-25T08:26:58.600Z,10.40
2022-12-25T08:29:29.010Z,10.40
2022-12-25T08:31:59.506Z,10.30
2022-12-25T08:34:29.117Z,10.40
2022-12-25T08:36:59.148Z,10.40
2022-12-25T08:39:31.400Z,10.40
2022-12-25T08:42:03.945Z,10.40
2022-12-25T08:44:33.649Z,10.40
2022-12-25T08:47:03.172Z,10.50
2022-12-25T08:49:32.630Z,10.30
2022-12-25T08:52:02.292Z,10.30
2022-12-25T08:54:36.474Z,10.30
2022-12-25T08:57:06.289Z,10.30
2022-12-25T08:59:35.830Z,10.30
2022-12-25T09:02:05.526Z,10.40
2022-12-25T09:04:35.355Z,10.40
2022-12-25T09:07:05.028Z,10.40
2022-12-25T09:09:37.150Z,10.40
2022-12-25T09:12:06.695Z,10.40
2022-12-25T09:14:36.233Z,10.40
2022-12-25T09:17:05.828Z,10.30
2022-12-25T09:19:35.469Z,10.30
2022-12-25T09:22:04.955Z,10.30
2022-12-25T09:24:39.258Z,10.30
2022-12-25T09:27:08.708Z,10.30
2022-12-25T09:29:39.032Z,10.40
2022-12-25T09:32:08.657Z,10.40
2022-12-25T09:34:38.380Z,10.40
2022-12-25T09:37:07.810Z,10.40
2022-12-25T09:39:46.106Z,10.40
2022-12-25T09:42:18.604Z,10.40
2022-12-25T09:44:50.453Z,10.50
2022-12-25T09:47:21.785Z,10.50
2022-12-25T09:49:54.844Z,10.50
2022-12-25T09:52:26.278Z,10.50
2022-12-25T09:55:00.781Z,10.50
2022-12-25T09:57:30.355Z,10.50
2022-12-25T10:00:00.071Z,10.60
2022-12-25T10:02:37.014Z,10.60
2022-12-25T10:05:22.293Z,10.70
2022-12-25T10:07:58.014Z,10.80
2022-12-25T10:10:39.230Z,10.80
2022-12-25T10:13:14.052Z,10.80
2022-12-25T10:15:49.693Z,10.90
2022-12-25T10:18:35.026Z,10.90
2022-12-25T10:21:11.133Z,11.00
2022-12-25T10:23:44.364Z,11.00
2022-12-25T10:26:18.491Z,11.00
2022-12-25T10:28:48.825Z,11.00
2022-12-25T10:31:23.156Z,11.00
2022-12-25T10:33:53.670Z,11.20
2022-12-25T10:36:24.334Z,11.10
2022-12-25T10:38:54.281Z,11.00
2022-12-25T10:41:34.986Z,10.70
2022-12-25T10:44:14.645Z,11.00
2022-12-25T10:46:44.332Z,11.00
2022-12-25T10:49:17.680Z,10.90
2022-12-25T10:51:47.175Z,10.80
2022-12-25T10:54:24.638Z,10.90
2022-12-25T10:57:01.244Z,11.00
2022-12-25T10:59:31.715Z,11.10
2022-12-25T11:02:07.560Z,11.20
2022-12-25T11:04:37.656Z,11.30
2022-12-25T11:07:09.021Z,11.30
2022-12-25T11:09:38.484Z,11.40
2022-12-25T11:12:19.689Z,11.50
2022-12-25T11:14:55.630Z,11.40
2022-12-25T11:17:26.574Z,11.40
2022-12-25T11:19:56.703Z,11.40
2022-12-25T11:22:26.345Z,11.40
2022-12-25T11:24:55.823Z,11.50
2022-12-25T11:27:29.926Z,11.50
2022-12-25T11:30:01.234Z,11.50
2022-12-25T11:32:32.180Z,11.50
2022-12-25T11:35:03.704Z,11.50
2022-12-25T11:37:36.138Z,11.60
2022-12-25T11:40:06.559Z,11.50
2022-12-25T11:42:40.174Z,11.60
2022-12-25T11:45:14.071Z,11.60
2022-12-25T11:47:46.165Z,11.70
2022-12-25T11:50:20.381Z,11.90
2022-12-25T11:52:50.760Z,11.70
2022-12-25T11:55:22.416Z,11.80
2022-12-25T11:57:57.553Z,11.80
2022-12-25T12:00:27.098Z,11.90
2022-12-25T12:02:59.924Z,11.80
2022-12-25T12:05:32.090Z,11.90
2022-12-25T12:08:02.315Z,11.90
2022-12-25T12:10:43.199Z,12.00
2022-12-25T12:13:23.550Z,12.00
2022-12-25T12:15:53.214Z,12.10
2022-12-25T12:18:24.334Z,12.10
2022-12-25T12:21:07.142Z,12.10
2022-12-25T12:23:38.726Z,12.10
2022-12-25T12:26:08.444Z,12.10
